Time;durP1;ratioP1;P1;durP2;ratioP2;P2;SDS_P1;SDS_P2;PMS_P1;PMS_P2;Temp;Humidity;BMP_temperature;BMP_pressure;BME280_temperature;BME280_humidity;BME280_pressure;Samples;Min_cycle;Max_cycle;Signal;HPM_P1;HPM_P2
2023/05/30 00:01:38;;;;;;;1999.90;999.90;;;;;;;15.51;100.00;97896.63;5032056;28;20025;-80
2023/05/30 00:04:03;;;;;;;1999.90;999.90;;;;;;;15.48;100.00;97902.78;5034033;28;20053;-78
2023/05/30 00:06:29;;;;;;;1999.90;999.90;;;;;;;15.33;100.00;97890.31;5032442;28;20025;-81
2023/05/30 00:08:54;;;;;;;1999.90;999.90;;;;;;;15.41;100.00;97908.00;5053358;28;20100;-78
2023/05/30 00:11:20;;;;;;;1999.90;999.90;;;;;;;15.48;100.00;97908.31;5055706;28;20055;-79
2023/05/30 00:13:45;;;;;;;1999.90;999.90;;;;;;;15.57;100.00;97898.06;5057702;28;20108;-78
2023/05/30 00:16:12;;;;;;;1999.90;999.90;;;;;;;15.55;100.00;97897.59;5054763;28;20025;-82
2023/05/30 00:18:38;;;;;;;1999.90;999.90;;;;;;;15.65;100.00;97908.28;5068442;28;20485;-80
2023/05/30 00:21:05;;;;;;;1999.90;999.90;;;;;;;15.66;100.00;97904.38;5035544;28;20025;-80
2023/05/30 00:23:31;;;;;;;1999.90;999.90;;;;;;;15.72;100.00;97908.59;5051914;28;20025;-81
2023/05/30 00:25:57;;;;;;;1999.90;999.90;;;;;;;15.74;100.00;97897.22;5052057;28;20025;-81
2023/05/30 00:28:23;;;;;;;1999.90;999.90;;;;;;;15.74;100.00;97900.78;5053816;28;20024;-80
2023/05/30 00:30:48;;;;;;;1999.90;999.90;;;;;;;15.65;100.00;97896.44;5056106;28;20017;-81
2023/05/30 00:33:14;;;;;;;1999.90;999.90;;;;;;;15.51;100.00;97893.88;5057106;28;20389;-81
2023/05/30 00:35:40;;;;;;;1999.90;999.90;;;;;;;15.48;100.00;97911.06;5051619;28;20025;-80
2023/05/30 00:38:05;;;;;;;1999.90;999.90;;;;;;;15.61;100.00;97900.97;5052827;28;20061;-80
2023/05/30 00:40:30;;;;;;;1999.90;999.90;;;;;;;15.43;100.00;97891.91;5052916;28;20029;-80
2023/05/30 00:42:56;;;;;;;1999.90;999.90;;;;;;;15.51;100.00;97907.66;5052506;28;20024;-80
2023/05/30 00:45:21;;;;;;;1999.90;999.90;;;;;;;15.54;100.00;97899.53;5052569;28;20037;-81
2023/05/30 00:47:48;;;;;;;1999.90;999.90;;;;;;;15.48;100.00;97892.59;5051374;28;20024;-80
2023/05/30 00:50:15;;;;;;;1999.90;999.90;;;;;;;15.60;100.00;97902.91;5050689;28;20025;-80
2023/05/30 00:52:41;;;;;;;1999.90;999.90;;;;;;;15.61;100.00;97909.25;5052793;28;20112;-81
2023/05/30 00:55:06;;;;;;;1999.90;999.90;;;;;;;15.59;100.00;97898.56;5051394;28;20119;-80
2023/05/30 00:57:33;;;;;;;1999.90;999.90;;;;;;;15.61;100.00;97907.31;5052484;28;20028;-81
2023/05/30 01:00:00;;;;;;;1999.90;999.90;;;;;;;15.63;100.00;97909.75;5052926;28;20025;-80
2023/05/30 01:02:25;;;;;;;1999.90;999.90;;;;;;;15.58;100.00;97891.41;5052629;28;20033;-81
2023/05/30 01:04:51;;;;;;;1999.90;999.90;;;;;;;15.57;100.00;97900.81;5051450;28;20029;-80
2023/05/30 01:07:16;;;;;;;1999.90;999.90;;;;;;;15.58;100.00;97896.13;5051530;28;20488;-82
2023/05/30 01:09:42;;;;;;;1999.90;999.90;;;;;;;15.41;100.00;97886.72;5052630;28;20040;-86
2023/05/30 01:12:20;;;;;;;1999.90;999.90;;;;;;;15.27;100.00;97879.78;5052081;28;20041;-81
2023/05/30 01:15:03;;;;;;;1999.90;999.90;;;;;;;15.15;100.00;97901.69;5051973;28;20504;-80
2023/05/30 01:18:06;;;;;;;1999.90;999.90;;;;;;;15.07;100.00;97902.53;5051044;28;20067;-80
2023/05/30 01:20:56;;;;;;;1999.90;999.90;;;;;;;14.94;100.00;97905.09;5050524;28;20095;-80
2023/05/30 01:23:30;;;;;;;1999.90;999.90;;;;;;;14.89;100.00;97908.03;5051659;28;20040;-80
2023/05/30 01:26:14;;;;;;;1999.90;999.90;;;;;;;14.90;100.00;97904.16;5052263;28;20086;-80
2023/05/30 01:28:43;;;;;;;1999.90;999.90;;;;;;;14.80;100.00;97882.44;5051601;28;20044;-78
2023/05/30 01:31:09;;;;;;;1999.90;999.90;;;;;;;14.87;100.00;97904.81;5050079;28;20083;-78
2023/05/30 01:33:36;;;;;;;1999.90;999.90;;;;;;;14.88;100.00;97898.16;5050685;28;20025;-80
2023/05/30 01:36:01;;;;;;;1999.90;999.90;;;;;;;14.75;100.00;97884.56;5051667;28;20025;-79
2023/05/30 01:38:26;;;;;;;1999.90;999.90;;;;;;;14.82;100.00;97904.97;5050337;28;20048;-78
2023/05/30 01:40:55;;;;;;;1999.90;999.90;;;;;;;14.84;100.00;97910.97;5051360;28;20020;-80
2023/05/30 01:43:26;;;;;;;1999.90;999.90;;;;;;;14.85;100.00;97907.06;5051408;28;20087;-82
2023/05/30 01:46:07;;;;;;;1999.90;999.90;;;;;;;14.76;100.00;97898.00;5050401;28;20037;-80
2023/05/30 01:48:51;;;;;;;1999.90;999.90;;;;;;;14.82;100.00;97907.72;5050552;28;20052;-80
2023/05/30 01:51:24;;;;;;;1999.90;999.90;;;;;;;14.77;100.00;97904.31;5051755;28;20025;-81
2023/05/30 01:53:57;;;;;;;1999.90;999.90;;;;;;;14.73;100.00;97901.41;5051593;28;20033;-81
2023/05/30 01:56:25;;;;;;;1999.90;999.90;;;;;;;14.79;100.00;97907.53;5050392;28;20029;-80
2023/05/30 01:58:51;;;;;;;1999.90;999.90;;;;;;;14.75;100.00;97890.06;5051235;28;20112;-81
2023/05/30 02:01:18;;;;;;;1999.90;999.90;;;;;;;14.83;100.00;97898.31;5049835;28;20017;-80
2023/05/30 02:03:45;;;;;;;1999.90;999.90;;;;;;;14.84;100.00;97901.91;5050181;28;20025;-84
2023/05/30 02:06:11;;;;;;;1999.90;999.90;;;;;;;14.73;100.00;97903.34;5050173;28;20024;-80
2023/05/30 02:08:36;;;;;;;1999.90;999.90;;;;;;;14.65;100.00;97899.47;5049992;28;20021;-80
2023/05/30 02:11:01;;;;;;;1999.90;999.90;;;;;;;14.54;100.00;97892.63;5050019;28;20486;-81
2023/05/30 02:13:27;;;;;;;1999.90;999.90;;;;;;;14.47;100.00;97889.56;5050827;28;20533;-81
2023/05/30 02:15:52;;;;;;;1999.90;999.90;;;;;;;14.53;100.00;97882.78;5049924;28;20037;-80
2023/05/30 02:18:19;;;;;;;1999.90;999.90;;;;;;;14.65;100.00;97896.69;5049782;28;20045;-81
2023/05/30 02:20:46;;;;;;;1999.90;999.90;;;;;;;14.63;100.00;97898.94;5049898;28;20025;-81
2023/05/30 02:23:11;;;;;;;1999.90;999.90;;;;;;;14.56;100.00;97887.63;5051481;28;20035;-83
2023/05/30 02:25:37;;;;;;;1999.90;999.90;;;;;;;14.60;100.00;97887.81;5050033;28;20025;-81
2023/05/30 02:28:02;;;;;;;1999.90;999.90;;;;;;;14.92;100.00;97901.88;5051334;28;20028;-79
2023/05/30 02:30:28;;;;;;;1999.90;999.90;;;;;;;14.91;100.00;97894.75;5051125;28;20044;-81
2023/05/30 02:32:53;;;;;;;1999.90;999.90;;;;;;;14.93;100.00;97889.75;5053287;28;20103;-79
2023/05/30 02:35:18;;;;;;;1999.90;999.90;;;;;;;14.96;100.00;97896.53;5056172;28;20033;-79
2023/05/30 02:37:45;;;;;;;1999.90;999.90;;;;;;;14.89;100.00;97886.00;5054371;28;20028;-80
2023/05/30 02:40:11;;;;;;;1999.90;999.90;;;;;;;14.88;100.00;97887.13;5056577;28;20045;-82
2023/05/30 02:42:37;;;;;;;1999.90;999.90;;;;;;;14.83;100.00;97887.31;5051253;28;20080;-78
2023/05/30 02:45:03;;;;;;;1999.90;999.90;;;;;;;14.83;100.00;97898.31;5049187;28;20021;-79
2023/05/30 02:47:30;;;;;;;1999.90;999.90;;;;;;;14.65;100.00;97891.19;5047398;28;20037;-78
2023/05/30 02:49:55;;;;;;;1999.90;999.90;;;;;;;14.44;100.00;97903.94;5040922;28;20048;-78
2023/05/30 02:52:21;;;;;;;1999.90;999.90;;;;;;;14.08;100.00;97903.34;5045537;28;20029;-76
2023/05/30 02:54:47;;;;;;;1999.90;999.90;;;;;;;14.01;100.00;97908.50;5041662;28;20398;-77
2023/05/30 02:57:12;;;;;;;1999.90;999.90;;;;;;;14.12;100.00;97907.91;5048719;28;20108;-78
2023/05/30 02:59:38;;;;;;;1999.90;999.90;;;;;;;14.19;100.00;97911.00;5048636;28;20040;-77
2023/05/30 03:02:03;;;;;;;1999.90;999.90;;;;;;;14.19;100.00;97894.47;5049770;28;20033;-79
2023/05/30 03:04:29;;;;;;;1999.90;999.90;;;;;;;14.06;100.00;97889.13;5049941;28;20029;-79
2023/05/30 03:06:55;;;;;;;1999.90;999.90;;;;;;;14.11;100.00;97892.53;5037143;28;20030;-77
2023/05/30 03:09:21;;;;;;;1999.90;999.90;;;;;;;14.09;100.00;97899.50;5028595;28;20034;-79
2023/05/30 03:11:46;;;;;;;1999.90;999.90;;;;;;;14.26;100.00;97905.03;5028215;28;20464;-77
2023/05/30 03:14:12;;;;;;;1999.90;999.90;;;;;;;14.22;100.00;97895.81;5030922;28;20037;-78
2023/05/30 03:16:39;;;;;;;1999.90;999.90;;;;;;;14.34;100.00;97902.34;5032670;28;20032;-78
2023/05/30 03:19:04;;;;;;;1999.90;999.90;;;;;;;14.41;100.00;97904.59;5032497;28;20144;-78
2023/05/30 03:21:32;;;;;;;1999.90;999.90;;;;;;;14.42;100.00;97892.47;5033702;28;20159;-78
2023/05/30 03:23:58;;;;;;;1999.90;999.90;;;;;;;14.57;100.00;97894.75;5032509;28;20453;-78
2023/05/30 03:26:24;;;;;;;1999.90;999.90;;;;;;;14.57;100.00;97885.66;5032427;28;20025;-78
2023/05/30 03:28:49;;;;;;;1999.90;999.90;;;;;;;14.64;100.00;97889.56;5032535;28;20106;-78
2023/05/30 03:31:15;;;;;;;1999.90;999.90;;;;;;;14.66;100.00;97881.00;5032693;28;20147;-79
2023/05/30 03:33:40;;;;;;;1999.90;999.90;;;;;;;14.74;100.00;97886.50;5033430;28;20504;-78
2023/05/30 03:36:06;;;;;;;1999.90;999.90;;;;;;;14.69;100.00;97892.16;5034031;28;20053;-77
2023/05/30 03:38:32;;;;;;;1999.90;999.90;;;;;;;14.64;100.00;97897.81;5033583;28;20031;-79
2023/05/30 03:40:57;;;;;;;1999.90;999.90;;;;;;;14.85;100.00;97906.25;5033437;28;20025;-79
2023/05/30 03:43:22;;;;;;;1999.90;999.90;;;;;;;14.90;100.00;97904.16;5044086;28;20025;-77
2023/05/30 03:45:49;;;;;;;1999.90;999.90;;;;;;;14.91;100.00;97893.97;5053283;28;20025;-78
2023/05/30 03:48:17;;;;;;;1999.90;999.90;;;;;;;14.95;100.00;97898.47;5053107;28;20031;-81
2023/05/30 03:50:42;;;;;;;1999.90;999.90;;;;;;;14.91;100.00;97894.75;5058704;28;20044;-80
2023/05/30 03:53:07;;;;;;;1999.90;999.90;;;;;;;14.98;100.00;97911.59;5053245;28;20018;-76
2023/05/30 03:55:33;;;;;;;1999.90;999.90;;;;;;;15.03;100.00;97905.91;5051821;28;20029;-75
2023/05/30 03:57:58;;;;;;;1999.90;999.90;;;;;;;15.13;100.00;97917.75;5051461;28;20057;-76
2023/05/30 04:00:24;;;;;;;1999.90;999.90;;;;;;;15.12;100.00;97910.63;5053084;28;20032;-76
2023/05/30 04:02:49;;;;;;;1999.90;999.90;;;;;;;15.13;100.00;97907.53;5052807;28;20449;-75
2023/05/30 04:05:15;;;;;;;1999.90;999.90;;;;;;;15.21;100.00;97903.16;5053013;28;20029;-75
2023/05/30 04:07:40;;;;;;;1999.90;999.90;;;;;;;15.25;100.00;97909.63;5051259;28;20044;-74
2023/05/30 04:10:06;;;;;;;1999.90;999.90;;;;;;;15.25;100.00;97901.38;5051398;28;20052;-74
2023/05/30 04:12:31;;;;;;;1999.90;999.90;;;;;;;15.23;100.00;97895.34;5051417;28;20116;-77
2023/05/30 04:14:56;;;;;;;1999.90;999.90;;;;;;;15.42;100.00;97899.38;5051105;28;20517;-75
2023/05/30 04:17:22;;;;;;;1999.90;999.90;;;;;;;15.46;100.00;97907.81;5052532;28;20032;-75
2023/05/30 04:19:47;;;;;;;1999.90;999.90;;;;;;;15.13;100.00;97879.19;5050920;28;20032;-75
2023/05/30 04:22:12;;;;;;;1999.90;999.90;;;;;;;15.24;100.00;97910.75;5051141;28;20087;-77
2023/05/30 04:24:38;;;;;;;1999.90;999.90;;;;;;;15.37;100.00;97907.84;5050871;28;20385;-77
2023/05/30 04:27:03;;;;;;;1999.90;999.90;;;;;;;15.25;100.00;97915.16;5051868;28;20389;-75
2023/05/30 04:29:29;;;;;;;1999.90;999.90;;;;;;;15.13;100.00;97917.75;5034662;28;20588;-75
2023/05/30 04:31:54;;;;;;;1999.90;999.90;;;;;;;15.32;100.00;97923.72;5052370;28;20028;-75
2023/05/30 04:34:20;;;;;;;1999.90;999.90;;;;;;;15.43;100.00;97917.53;5050560;28;20771;-75
2023/05/30 04:36:45;;;;;;;1999.90;999.90;;;;;;;15.46;100.00;97905.06;5052850;28;20086;-74
2023/05/30 04:39:11;;;;;;;1999.90;999.90;;;;;;;15.59;100.00;97917.88;5050766;28;20025;-76
2023/05/30 04:41:36;;;;;;;1999.90;999.90;;;;;;;15.61;100.00;97912.81;5052553;28;20029;-76
2023/05/30 04:44:03;;;;;;;1999.90;999.90;;;;;;;15.75;100.00;97920.91;5051450;28;20492;-75
2023/05/30 04:46:29;;;;;;;1999.90;999.90;;;;;;;15.77;100.00;97908.38;5035312;28;20398;-81
2023/05/30 04:49:00;;;;;;;1999.90;999.90;;;;;;;15.79;100.00;97924.59;5053140;28;20105;-75
2023/05/30 04:51:26;;;;;;;1999.90;999.90;;;;;;;15.89;100.00;97927.81;5052104;28;20031;-75
2023/05/30 04:53:52;;;;;;;1999.90;999.90;;;;;;;15.91;100.00;97920.00;5050820;28;20060;-77
2023/05/30 04:56:19;;;;;;;1999.90;999.90;;;;;;;16.04;100.00;97935.53;5053470;28;20068;-80
2023/05/30 04:58:48;;;;;;;1999.90;999.90;;;;;;;16.01;100.00;97925.16;5037170;28;20100;-76
2023/05/30 05:01:14;;;;;;;1999.90;999.90;;;;;;;15.98;100.00;97912.03;5053550;28;20733;-75
2023/05/30 05:03:41;;;;;;;1999.90;999.90;;;;;;;15.93;100.00;97926.03;5050344;28;20029;-75
2023/05/30 05:06:07;;;;;;;1999.90;999.90;;;;;;;15.92;100.00;97934.63;5034160;28;20060;-78
2023/05/30 05:08:36;;;;;;;1999.90;999.90;;;;;;;15.88;100.00;97925.41;5053234;28;20021;-83
2023/05/30 05:11:03;;;;;;;1999.90;999.90;;;;;;;15.92;100.00;97937.38;5051497;28;20146;-81
2023/05/30 05:13:30;;;;;;;1999.90;999.90;;;;;;;15.90;100.00;97943.25;5051636;28;20048;-82
2023/05/30 05:15:56;;;;;;;1999.90;999.90;;;;;;;15.72;100.00;97927.88;5053381;28;20389;-81
2023/05/30 05:18:22;;;;;;;1999.90;999.90;;;;;;;15.85;100.00;97928.81;5053326;28;20431;-82
2023/05/30 05:20:51;;;;;;;1999.90;999.90;;;;;;;16.03;100.00;97953.25;5053239;28;20112;-83
2023/05/30 05:23:17;;;;;;;1999.90;999.90;;;;;;;16.40;100.00;97961.84;5035740;28;20029;-81
2023/05/30 05:25:42;;;;;;;1999.90;999.90;;;;;;;16.28;100.00;97931.38;5053644;28;20039;-85
2023/05/30 05:28:07;;;;;;;1999.90;999.90;;;;;;;16.26;100.00;97944.69;5053380;28;20118;-82
2023/05/30 05:30:33;;;;;;;1999.90;999.90;;;;;;;16.21;100.00;97942.94;5051435;28;20031;-80
2023/05/30 05:32:58;;;;;;;1999.90;999.90;;;;;;;16.26;100.00;97942.75;5050440;28;20114;-82
2023/05/30 05:35:24;;;;;;;1999.90;999.90;;;;;;;16.56;100.00;97938.88;5053728;28;20489;-81
2023/05/30 05:37:50;;;;;;;1999.90;999.90;;;;;;;16.80;100.00;97945.69;5050969;28;20027;-81
2023/05/30 05:40:15;;;;;;;1999.90;999.90;;;;;;;17.02;100.00;97950.91;5054240;28;20025;-81
2023/05/30 05:42:42;;;;;;;1999.90;999.90;;;;;;;17.28;100.00;97948.75;5052711;28;20033;-84
2023/05/30 05:45:08;;;;;;;1999.90;999.90;;;;;;;17.38;100.00;97964.91;5038715;28;20091;-83
2023/05/30 05:47:34;;;;;;;1999.90;999.90;;;;;;;17.61;100.00;97957.06;5052192;28;20021;-79
2023/05/30 05:50:04;;;;;;;1999.90;999.90;;;;;;;17.82;100.00;97952.28;5060115;28;20018;-80
2023/05/30 05:52:29;;;;;;;1999.90;999.90;;;;;;;17.95;100.00;97967.75;5029069;28;20501;-79
2023/05/30 05:54:54;;;;;;;1999.90;999.90;;;;;;;18.01;100.00;97973.91;5028531;28;20029;-80
2023/05/30 05:57:20;;;;;;;1999.90;999.90;;;;;;;18.05;100.00;97975.63;5029206;28;20025;-79
2023/05/30 05:59:46;;;;;;;1999.90;999.90;;;;;;;17.96;100.00;97958.31;5029000;28;20022;-79
2023/05/30 06:02:12;;;;;;;1999.90;999.90;;;;;;;17.77;100.00;97957.22;5036360;28;20017;-79
2023/05/30 06:04:38;;;;;;;1999.90;999.90;;;;;;;18.28;100.00;97972.44;5050554;28;20021;-80
2023/05/30 06:07:04;;;;;;;1999.90;999.90;;;;;;;18.56;100.00;97974.19;5051007;28;20029;-76
2023/05/30 06:09:34;;;;;;;1999.90;999.90;;;;;;;18.64;100.00;97978.00;5051601;28;20032;-75
2023/05/30 06:12:02;;;;;;;1999.90;999.90;;;;;;;18.73;100.00;97985.03;5050229;28;20049;-79
2023/05/30 06:14:28;;;;;;;1999.90;999.90;;;;;;;18.46;100.00;97982.13;5049694;28;20113;-73
2023/05/30 06:16:55;;;;;;;1999.90;999.90;;;;;;;18.39;100.00;97988.22;5049876;28;20057;-74
2023/05/30 06:19:20;;;;;;;1999.90;999.90;;;;;;;18.64;100.00;97986.31;5048471;28;20481;-73
2023/05/30 06:21:46;;;;;;;1999.90;999.90;;;;;;;18.95;100.00;97988.50;5049214;28;20119;-74
2023/05/30 06:24:11;;;;;;;1999.90;999.90;;;;;;;18.89;100.00;97990.66;5049581;28;20039;-75
2023/05/30 06:26:36;;;;;;;1999.90;999.90;;;;;;;19.24;100.00;97989.00;5051119;28;20017;-82
2023/05/30 06:29:02;;;;;;;1999.90;999.90;;;;;;;19.43;100.00;97982.03;5050867;28;20064;-79
2023/05/30 06:31:27;;;;;;;1999.90;999.90;;;;;;;19.81;100.00;98003.72;5048762;28;20025;-78
2023/05/30 06:33:52;;;;;;;1999.90;999.90;;;;;;;20.10;100.00;97998.59;5048875;28;20079;-78
2023/05/30 06:36:18;;;;;;;1999.90;999.90;;;;;;;20.21;100.00;98008.00;5032710;28;20057;-78
2023/05/30 06:38:44;;;;;;;1999.90;999.90;;;;;;;20.47;100.00;98004.75;5049022;28;20418;-77
2023/05/30 06:41:09;;;;;;;1999.90;999.90;;;;;;;21.07;100.00;98014.53;5050068;28;20025;-78
2023/05/30 06:43:35;;;;;;;1999.90;999.90;;;;;;;20.73;94.69;98018.09;5050451;28;20033;-77
2023/05/30 06:46:00;;;;;;;1999.90;999.90;;;;;;;21.12;91.37;98007.91;5049313;28;20017;-78
2023/05/30 06:48:25;;;;;;;1999.90;999.90;;;;;;;21.14;88.19;98014.75;5049309;28;20449;-77
2023/05/30 06:50:51;;;;;;;1999.90;999.90;;;;;;;20.97;88.56;98006.75;5050421;28;20048;-77
2023/05/30 06:53:16;;;;;;;1999.90;999.90;;;;;;;21.51;84.83;98011.56;5052031;28;20048;-77
2023/05/30 06:55:43;;;;;;;1999.90;999.90;;;;;;;21.79;84.78;98014.94;5055427;28;20051;-79
2023/05/30 06:58:08;;;;;;;1999.90;999.90;;;;;;;21.55;86.61;98001.31;5050206;28;20082;-77
2023/05/30 07:00:34;;;;;;;1999.90;999.90;;;;;;;21.49;86.75;98019.47;5048664;28;20021;-77
2023/05/30 07:03:00;;;;;;;1999.90;999.90;;;;;;;21.59;85.35;98021.66;5049832;28;20060;-77
2023/05/30 07:05:26;;;;;;;1999.90;999.90;;;;;;;21.50;86.87;98018.28;5050136;28;20087;-76
2023/05/30 07:07:51;;;;;;;1999.90;999.90;;;;;;;21.61;86.41;98020.16;5049011;28;20021;-78
2023/05/30 07:10:16;;;;;;;1999.90;999.90;;;;;;;21.87;86.54;98023.06;5049923;28;20053;-79
2023/05/30 07:12:42;;;;;;;1999.90;999.90;;;;;;;22.11;82.80;98024.75;5050137;28;20037;-77
2023/05/30 07:15:08;;;;;;;1999.90;999.90;;;;;;;22.30;80.93;98023.91;5049045;28;20037;-78
2023/05/30 07:17:33;;;;;;;1999.90;999.90;;;;;;;22.30;83.48;98026.69;5050394;28;20052;-79
2023/05/30 07:19:59;;;;;;;1999.90;999.90;;;;;;;22.48;81.33;98030.59;5053536;28;20477;-76
2023/05/30 07:22:24;;;;;;;1999.90;999.90;;;;;;;22.57;78.60;98019.19;5054947;28;20043;-77
2023/05/30 07:24:49;;;;;;;1999.90;999.90;;;;;;;22.61;78.88;98008.91;5051636;28;20440;-78
2023/05/30 07:27:15;;;;;;;1999.90;999.90;;;;;;;22.47;78.84;98023.41;5049859;28;20485;-78
2023/05/30 07:29:40;;;;;;;1999.90;999.90;;;;;;;22.48;77.29;98016.66;5048500;28;20025;-80
2023/05/30 07:32:06;;;;;;;1999.90;999.90;;;;;;;21.95;79.56;98012.09;5048649;28;20033;-79
2023/05/30 07:34:31;;;;;;;1999.90;999.90;;;;;;;22.59;77.45;98016.84;5049842;28;20486;-77
2023/05/30 07:36:57;;;;;;;1999.90;999.90;;;;;;;22.84;76.29;98009.72;5048637;28;20067;-78
2023/05/30 07:39:22;;;;;;;1999.90;999.90;;;;;;;22.96;74.71;98005.94;5048768;28;20029;-78
2023/05/30 07:41:48;;;;;;;1999.90;999.90;;;;;;;22.73;76.32;98003.16;5049551;28;20048;-77
2023/05/30 07:44:13;;;;;;;1999.90;999.90;;;;;;;22.47;77.03;98008.66;5048447;28;20033;-78
2023/05/30 07:46:38;;;;;;;1999.90;999.90;;;;;;;22.49;76.91;98007.09;5050278;28;20155;-78
2023/05/30 07:49:04;;;;;;;1999.90;999.90;;;;;;;22.70;77.03;98009.50;5049786;28;20393;-78
2023/05/30 07:51:30;;;;;;;1999.90;999.90;;;;;;;23.32;74.66;97997.69;5049692;28;20048;-79
2023/05/30 07:53:55;;;;;;;1999.90;999.90;;;;;;;23.86;72.82;98004.78;5049554;28;20033;-77
2023/05/30 07:56:21;;;;;;;1999.90;999.90;;;;;;;24.20;69.99;98006.41;5048161;28;20446;-78
2023/05/30 07:58:46;;;;;;;1999.90;999.90;;;;;;;25.96;61.79;98004.09;5049688;28;20025;-78
2023/05/30 08:01:11;;;;;;;1999.90;999.90;;;;;;;26.57;54.51;97999.41;5052394;28;20023;-80
2023/05/30 08:03:37;;;;;;;1999.90;999.90;;;;;;;27.05;52.79;98000.66;5053148;28;20029;-78
2023/05/30 08:06:02;;;;;;;1999.90;999.90;;;;;;;28.10;49.93;98007.19;5052957;28;20052;-79
2023/05/30 08:08:27;;;;;;;1999.90;999.90;;;;;;;27.91;48.61;98001.25;5053136;28;20386;-79
2023/05/30 08:10:53;;;;;;;1999.90;999.90;;;;;;;26.69;51.02;98003.84;5051447;28;20044;-79
2023/05/30 08:13:18;;;;;;;1999.90;999.90;;;;;;;25.69;53.83;97997.16;5051628;28;20477;-78
2023/05/30 08:15:44;;;;;;;1999.90;999.90;;;;;;;25.93;52.78;97992.84;5053509;28;20024;-78
2023/05/30 08:18:09;;;;;;;1999.90;999.90;;;;;;;24.55;56.27;97985.56;5053202;28;20033;-79
2023/05/30 08:20:35;;;;;;;1999.90;999.90;;;;;;;25.06;56.04;97989.16;5052784;28;20017;-79
2023/05/30 08:23:01;;;;;;;1999.90;999.90;;;;;;;26.55;50.96;97994.22;5052902;28;20025;-78
2023/05/30 08:25:32;;;;;;;1999.90;999.90;;;;;;;29.03;44.39;98001.75;5052099;28;20111;-78
2023/05/30 08:28:01;;;;;;;1999.90;999.90;;;;;;;29.54;41.84;98010.09;5051498;28;20021;-79
2023/05/30 08:30:26;;;;;;;1999.90;999.90;;;;;;;30.68;39.85;98007.41;5051313;28;20029;-78
2023/05/30 08:32:51;;;;;;;1999.90;999.90;;;;;;;31.05;38.16;98005.63;5052726;28;20481;-78
2023/05/30 08:35:17;;;;;;;1999.90;999.90;;;;;;;30.58;38.63;98005.56;5034624;28;20037;-79
2023/05/30 08:37:42;;;;;;;1999.90;999.90;;;;;;;31.38;36.38;98012.31;5052504;28;20266;-78
2023/05/30 08:40:11;;;;;;;1999.90;999.90;;;;;;;31.40;36.43;98015.50;5052521;28;20052;-79
2023/05/30 08:42:37;;;;;;;1999.90;999.90;;;;;;;32.35;33.66;98005.13;5052206;28;20481;-78
2023/05/30 08:45:04;;;;;;;1999.90;999.90;;;;;;;31.79;31.88;98016.41;5052739;28;20107;-76
2023/05/30 08:47:31;;;;;;;1999.90;999.90;;;;;;;30.80;36.33;98006.00;5052975;28;20052;-77
2023/05/30 08:49:58;;;;;;;1999.90;999.90;;;;;;;31.89;33.71;98010.94;5052736;28;20029;-79
2023/05/30 08:52:29;;;;;;;1999.90;999.90;;;;;;;30.19;33.67;98010.94;5052574;28;20059;-78
2023/05/30 08:55:16;;;;;;;1999.90;999.90;;;;;;;30.16;33.05;98012.59;5052454;28;20025;-78
2023/05/30 08:57:51;;;;;;;1999.90;999.90;;;;;;;28.99;36.01;97996.13;5052483;28;20032;-78
2023/05/30 09:00:17;;;;;;;1999.90;999.90;;;;;;;27.74;37.69;97993.69;5052743;28;20021;-77
2023/05/30 09:02:43;;;;;;;1999.90;999.90;;;;;;;26.04;42.61;97988.06;5057231;28;20026;-76
2023/05/30 09:05:12;;;;;;;1999.90;999.90;;;;;;;25.06;43.89;97986.38;5056316;28;20025;-76
2023/05/30 09:07:38;;;;;;;1999.90;999.90;;;;;;;24.10;45.04;97976.31;5052189;28;20416;-81
2023/05/30 09:10:04;;;;;;;1999.90;999.90;;;;;;;24.38;44.55;97976.63;5051948;28;20029;-82
2023/05/30 09:12:30;;;;;;;1999.90;999.90;;;;;;;24.51;44.37;97977.94;5049113;28;20120;-78
2023/05/30 09:14:56;;;;;;;1999.90;999.90;;;;;;;24.36;42.32;97979.00;5030662;28;20108;-79
2023/05/30 09:17:22;;;;;;;1999.90;999.90;;;;;;;24.04;42.85;97983.44;5031057;28;20025;-77
2023/05/30 09:19:48;;;;;;;1999.90;999.90;;;;;;;24.10;42.33;97981.09;5030558;28;20025;-79
2023/05/30 09:22:15;;;;;;;1999.90;999.90;;;;;;;24.21;41.89;97982.03;5031739;28;20033;-79
2023/05/30 09:25:00;;;;;;;1999.90;999.90;;;;;;;23.81;43.06;97980.78;5031916;28;20038;-79
2023/05/30 09:27:28;;;;;;;1999.90;999.90;;;;;;;24.80;40.91;97984.56;5031652;28;20021;-79
2023/05/30 09:29:54;;;;;;;1999.90;999.90;;;;;;;24.27;41.35;97975.72;5031535;28;20032;-77
2023/05/30 09:32:22;;;;;;;1999.90;999.90;;;;;;;25.72;39.26;97981.56;5031569;28;20029;-78
2023/05/30 09:34:55;;;;;;;1999.90;999.90;;;;;;;27.68;35.02;97973.63;5031622;28;20042;-77
2023/05/30 09:37:21;;;;;;;1999.90;999.90;;;;;;;27.91;33.98;97987.19;5031645;28;20041;-78
2023/05/30 09:40:23;;;;;;;1999.90;999.90;;;;;;;26.61;35.84;97992.63;5031445;28;20029;-79
2023/05/30 09:42:53;;;;;;;1999.90;999.90;;;;;;;26.23;37.22;97987.75;5029543;28;20030;-78
2023/05/30 09:45:23;;;;;;;1999.90;999.90;;;;;;;26.59;36.50;97986.56;5027058;28;20091;-80
2023/05/30 09:47:50;;;;;;;1999.90;999.90;;;;;;;27.24;35.63;97987.38;5031580;28;20033;-78
2023/05/30 09:50:17;;;;;;;1999.90;999.90;;;;;;;27.50;34.73;97984.13;5029805;28;20078;-78
2023/05/30 09:52:44;;;;;;;1999.90;999.90;;;;;;;29.53;32.44;97979.50;5029946;28;20029;-79
2023/05/30 09:55:13;;;;;;;1999.90;999.90;;;;;;;27.47;36.60;97974.47;5031135;28;20045;-77
2023/05/30 09:57:40;;;;;;;1999.90;999.90;;;;;;;25.91;38.37;97981.22;5029942;28;20021;-79
2023/05/30 10:00:11;;;;;;;1999.90;999.90;;;;;;;26.69;37.63;97978.59;5029775;28;20021;-79
2023/05/30 10:02:38;;;;;;;1999.90;999.90;;;;;;;27.59;39.72;97976.06;5029748;28;20056;-76
2023/05/30 10:05:04;;;;;;;1999.90;999.90;;;;;;;27.28;40.35;97977.75;5031047;28;20030;-79
2023/05/30 10:07:31;;;;;;;1999.90;999.90;;;;;;;27.05;40.87;97975.38;5029698;28;20075;-77
2023/05/30 10:09:58;;;;;;;1999.90;999.90;;;;;;;27.80;40.19;97972.34;5030950;28;20501;-77
2023/05/30 10:12:24;;;;;;;1999.90;999.90;;;;;;;25.39;44.69;97979.78;5030946;28;20068;-79
2023/05/30 10:14:49;;;;;;;1999.90;999.90;;;;;;;26.03;43.54;97997.69;5030905;28;20562;-77
2023/05/30 10:17:19;;;;;;;1999.90;999.90;;;;;;;25.62;44.51;97979.53;5031681;28;20143;-78
2023/05/30 10:19:56;;;;;;;1999.90;999.90;;;;;;;25.68;43.80;97981.56;5030948;28;20030;-76
2023/05/30 10:22:26;;;;;;;1999.90;999.90;;;;;;;25.96;44.40;97986.47;5029204;28;20029;-79
2023/05/30 10:24:51;;;;;;;1999.90;999.90;;;;;;;25.61;45.28;97975.91;5030761;28;20498;-76
2023/05/30 10:27:27;;;;;;;1999.90;999.90;;;;;;;26.92;41.18;97971.38;5031051;28;20160;-75
2023/05/30 10:30:15;;;;;;;1999.90;999.90;;;;;;;25.49;42.84;97982.66;5029309;28;20041;-75
2023/05/30 10:32:45;;;;;;;1999.90;999.90;;;;;;;25.01;44.40;97981.94;5030424;28;20040;-77
2023/05/30 10:35:19;;;;;;;1999.90;999.90;;;;;;;24.10;46.16;97981.09;5029177;28;20034;-75
2023/05/30 10:37:46;;;;;;;1999.90;999.90;;;;;;;24.27;47.14;97970.13;5030625;28;20168;-75
2023/05/30 10:40:29;;;;;;;1999.90;999.90;;;;;;;24.39;47.83;97953.06;5045909;28;20513;-77
2023/05/30 10:43:06;;;;;;;1999.90;999.90;;;;;;;24.57;48.73;97953.19;5030486;28;20025;-78
2023/05/30 10:46:10;;;;;;;1999.90;999.90;;;;;;;24.85;48.16;97961.84;5030688;28;20038;-76
2023/05/30 10:48:44;;;;;;;1999.90;999.90;;;;;;;24.73;49.22;97956.53;5029779;28;20124;-77
2023/05/30 10:51:11;;;;;;;1999.90;999.90;;;;;;;24.98;48.25;97948.31;5029119;28;20033;-78